createdAt,value
2023-01-10T00:00:37.322Z,35.40
2023-01-10T00:03:06.234Z,39.35
2023-01-10T00:05:33.307Z,33.35
2023-01-10T00:08:02.195Z,25.23
2023-01-10T00:10:29.584Z,28.75
2023-01-10T00:13:15.263Z,33.95
2023-01-10T00:15:42.496Z,38.70
2023-01-10T00:18:09.699Z,40.33
2023-01-10T00:20:36.835Z,37.97
2023-01-10T00:23:03.876Z,37.53
2023-01-10T00:25:33.439Z,35.53
2023-01-10T00:28:17.395Z,37.65
2023-01-10T00:30:44.450Z,37.00
2023-01-10T00:33:17.471Z,35.97
2023-01-10T00:35:44.459Z,36.00
2023-01-10T00:38:11.335Z,29.70
2023-01-10T00:40:38.250Z,35.83
2023-01-10T00:43:23.925Z,38.42
2023-01-10T00:45:50.837Z,44.50
2023-01-10T00:48:17.889Z,44.75
2023-01-10T00:50:46.454Z,49.90
2023-01-10T00:53:13.380Z,49.45
2023-01-10T00:55:41.026Z,51.92
2023-01-10T00:58:11.758Z,45.22
2023-01-10T01:00:39.090Z,44.20
2023-01-10T01:03:07.091Z,44.35
2023-01-10T01:05:39.924Z,47.85
2023-01-10T01:08:06.963Z,47.85
2023-01-10T01:10:34.076Z,50.75
2023-01-10T01:13:10.809Z,43.45
2023-01-10T01:15:38.500Z,43.13
2023-01-10T01:18:06.262Z,40.67
2023-01-10T01:20:33.643Z,50.58
2023-01-10T01:23:01.191Z,42.47
2023-01-10T01:25:28.087Z,78.45
2023-01-10T01:27:54.963Z,55.35
2023-01-10T01:30:21.860Z,47.40
2023-01-10T01:32:48.906Z,50.63
2023-01-10T01:35:16.851Z,49.53
2023-01-10T01:37:44.739Z,49.25
2023-01-10T01:40:16.643Z,52.67
2023-01-10T01:42:44.692Z,47.30
2023-01-10T01:45:14.763Z,50.40
2023-01-10T01:47:58.335Z,57.78
2023-01-10T01:50:31.570Z,49.33
2023-01-10T01:53:02.547Z,53.58
2023-01-10T01:55:33.135Z,59.05
2023-01-10T01:58:07.282Z,53.83
2023-01-10T02:00:35.624Z,53.58
2023-01-10T02:03:04.230Z,43.70
2023-01-10T02:05:34.240Z,49.38
2023-01-10T02:08:02.499Z,46.28
2023-01-10T02:10:49.042Z,46.13
2023-01-10T02:13:20.031Z,49.10
2023-01-10T02:15:46.966Z,52.28
2023-01-10T02:18:14.358Z,63.97
2023-01-10T02:21:32.345Z,51.78
2023-01-10T02:24:46.883Z,52.35
2023-01-10T02:27:22.903Z,45.72
2023-01-10T02:30:07.812Z,48.47
2023-01-10T02:32:50.555Z,48.20
2023-01-10T02:36:14.860Z,48.15
2023-01-10T02:39:02.827Z,37.50
2023-01-10T02:41:39.990Z,51.80
2023-01-10T02:44:21.363Z,50.47
2023-01-10T02:46:49.882Z,44.90
2023-01-10T02:49:16.805Z,52.33
2023-01-10T02:51:43.720Z,55.25
2023-01-10T02:54:20.110Z,62.30
2023-01-10T02:56:53.157Z,48.30
2023-01-10T02:59:38.301Z,50.17
2023-01-10T03:02:22.056Z,55.50
2023-01-10T03:05:16.344Z,53.40
2023-01-10T03:08:01.185Z,50.38
2023-01-10T03:10:39.944Z,46.13
2023-01-10T03:13:22.184Z,60.70
2023-01-10T03:15:50.258Z,57.08
2023-01-10T03:18:33.997Z,51.78
2023-01-10T03:21:05.192Z,50.95
2023-01-10T03:23:35.237Z,56.65
2023-01-10T03:26:05.232Z,51.47
2023-01-10T03:28:38.084Z,51.60
2023-01-10T03:31:11.388Z,50.67
2023-01-10T03:33:39.071Z,47.10
2023-01-10T03:36:28.414Z,46.40
2023-01-10T03:38:57.940Z,46.28
2023-01-10T03:41:49.604Z,43.72
2023-01-10T03:44:40.172Z,54.58
2023-01-10T03:47:13.756Z,44.38
2023-01-10T03:49:44.640Z,58.95
2023-01-10T03:52:15.829Z,59.55
2023-01-10T03:54:44.766Z,64.55
2023-01-10T03:57:22.950Z,64.60
2023-01-10T03:59:58.088Z,48.72
2023-01-10T04:02:30.865Z,47.45
2023-01-10T04:04:59.183Z,58.63
2023-01-10T04:07:26.709Z,62.25
2023-01-10T04:09:53.775Z,58.60
2023-01-10T04:12:20.847Z,54.17
2023-01-10T04:14:48.138Z,53.22
2023-01-10T04:17:16.633Z,53.10
2023-01-10T04:19:44.202Z,53.90
2023-01-10T04:22:11.808Z,63.38
2023-01-10T04:24:39.172Z,61.80
2023-01-10T04:27:07.638Z,50.45
2023-01-10T04:29:34.624Z,56.35
2023-01-10T04:32:01.546Z,55.40
2023-01-10T04:34:28.441Z,50.17
2023-01-10T04:36:55.382Z,59.15
2023-01-10T04:39:22.284Z,54.97
2023-01-10T04:41:49.814Z,51.30
2023-01-10T04:44:16.764Z,62.28
2023-01-10T04:46:43.618Z,57.17
2023-01-10T04:49:11.113Z,58.85
2023-01-10T04:51:38.511Z,61.65
2023-01-10T04:54:05.545Z,59.83
2023-01-10T04:56:32.436Z,62.50
2023-01-10T04:58:59.329Z,61.53
2023-01-10T05:01:26.565Z,55.95
2023-01-10T05:03:55.898Z,54.97
2023-01-10T05:06:24.352Z,58.00
2023-01-10T05:08:51.630Z,62.35
2023-01-10T05:11:18.523Z,61.40
2023-01-10T05:13:47.842Z,54.63
2023-01-10T05:16:15.614Z,59.47
2023-01-10T05:18:42.630Z,50.83
2023-01-10T05:21:11.840Z,58.78
2023-01-10T05:23:39.360Z,67.32
2023-01-10T05:26:12.234Z,63.25
2023-01-10T05:28:39.515Z,61.13
2023-01-10T05:31:12.547Z,57.33
2023-01-10T05:33:39.951Z,56.40
2023-01-10T05:36:07.493Z,51.95
2023-01-10T05:38:34.504Z,48.10
2023-01-10T05:41:01.671Z,45.90
2023-01-10T05:43:29.159Z,40.88
2023-01-10T05:45:56.367Z,50.20
2023-01-10T05:48:23.774Z,39.05
2023-01-10T05:50:53.029Z,52.25
2023-01-10T05:53:20.421Z,44.97
2023-01-10T05:55:55.305Z,42.83
2023-01-10T05:58:22.591Z,42.70
2023-01-10T06:00:49.753Z,40.13
2023-01-10T06:03:16.735Z,48.83
2023-01-10T06:05:43.730Z,32.55
2023-01-10T06:08:10.911Z,37.08
2023-01-10T06:10:37.923Z,34.00
2023-01-10T06:13:09.930Z,39.72
2023-01-10T06:15:37.471Z,49.92
2023-01-10T06:18:04.906Z,45.80
2023-01-10T06:20:32.074Z,42.47
2023-01-10T06:23:01.126Z,38.47
2023-01-10T06:25:29.457Z,36.15
2023-01-10T06:27:56.648Z,37.85
2023-01-10T06:30:23.709Z,40.97
2023-01-10T06:32:50.628Z,39.97
2023-01-10T06:35:18.229Z,57.88
2023-01-10T06:37:45.789Z,53.55
2023-01-10T06:40:12.928Z,44.65
2023-01-10T06:42:41.353Z,42.15
2023-01-10T06:45:09.003Z,36.75
2023-01-10T06:47:36.042Z,41.63
2023-01-10T06:50:03.651Z,39.28
2023-01-10T06:52:30.695Z,46.42
2023-01-10T06:54:57.614Z,33.60
2023-01-10T06:57:24.448Z,31.65
2023-01-10T06:59:52.124Z,44.55
2023-01-10T07:02:20.504Z,39.25
2023-01-10T07:04:49.354Z,31.35
2023-01-10T07:07:16.422Z,32.60
2023-01-10T07:09:43.432Z,29.70
2023-01-10T07:12:10.355Z,37.80
2023-01-10T07:14:37.326Z,46.85
2023-01-10T07:17:04.277Z,43.53
2023-01-10T07:19:31.338Z,35.97
2023-01-10T07:21:58.376Z,40.83
2023-01-10T07:24:25.277Z,36.95
2023-01-10T07:26:55.212Z,42.67
2023-01-10T07:29:22.288Z,37.90
2023-01-10T07:31:49.204Z,36.83
2023-01-10T07:34:16.216Z,28.92
2023-01-10T07:36:43.069Z,49.67
2023-01-10T07:39:10.181Z,38.65
2023-01-10T07:41:37.062Z,39.63
2023-01-10T07:44:04.092Z,34.10
2023-01-10T07:46:31.151Z,50.17
2023-01-10T07:48:58.193Z,31.20
2023-01-10T07:51:25.126Z,39.03
2023-01-10T07:53:51.993Z,35.40
2023-01-10T07:56:18.865Z,32.25
2023-01-10T07:58:46.537Z,45.60
2023-01-10T08:01:13.484Z,40.72
2023-01-10T08:03:40.703Z,36.75
2023-01-10T08:06:13.183Z,29.05
2023-01-10T08:08:41.283Z,25.70
2023-01-10T08:11:08.346Z,39.35
2023-01-10T08:13:35.212Z,22.70
2023-01-10T08:16:06.443Z,32.95
2023-01-10T08:18:33.607Z,28.50
2023-01-10T08:21:01.129Z,30.10
2023-01-10T08:23:28.041Z,26.23
2023-01-10T08:25:55.375Z,23.13
2023-01-10T08:28:22.358Z,29.83
2023-01-10T08:30:50.576Z,34.20
2023-01-10T08:33:17.643Z,27.00
2023-01-10T08:35:44.588Z,27.92
2023-01-10T08:38:12.131Z,22.95
2023-01-10T08:40:39.193Z,33.28
2023-01-10T08:43:09.968Z,22.50
2023-01-10T08:45:38.197Z,30.25
2023-01-10T08:48:06.193Z,34.20
2023-01-10T08:50:33.405Z,37.55
2023-01-10T08:53:01.346Z,33.80
2023-01-10T08:55:31.105Z,26.60
2023-01-10T08:58:01.379Z,38.05
2023-01-10T09:00:29.096Z,30.02
2023-01-10T09:02:56.172Z,27.73
2023-01-10T09:05:27.348Z,23.70
2023-01-10T09:10:27.487Z,26.88
2023-01-10T09:12:57.412Z,31.17
2023-01-10T09:15:27.334Z,18.77
2023-01-10T09:17:56.442Z,24.25
2023-01-10T09:20:25.643Z,18.10
2023-01-10T09:22:52.898Z,24.75
2023-01-10T09:25:19.927Z,22.52
2023-01-10T09:27:46.961Z,23.73
2023-01-10T09:30:14.260Z,22.35
2023-01-10T09:32:41.208Z,21.70
2023-01-10T09:35:08.830Z,19.38
2023-01-10T09:37:35.912Z,19.58
2023-01-10T09:40:02.919Z,21.10
2023-01-10T09:43:04.771Z,20.08
2023-01-10T09:45:58.393Z,21.15
2023-01-10T09:48:46.468Z,22.60
2023-01-10T09:51:40.680Z,18.95
2023-01-10T09:54:32.487Z,21.45
2023-01-10T09:57:01.800Z,29.02
2023-01-10T09:59:38.040Z,27.55
2023-01-10T10:02:20.969Z,25.30
2023-01-10T10:05:18.304Z,24.23
2023-01-10T10:07:50.944Z,21.35
2023-01-10T10:10:27.137Z,27.75
2023-01-10T10:13:31.219Z,21.67
2023-01-10T10:16:17.363Z,26.08
2023-01-10T10:19:01.633Z,16.73
2023-01-10T10:21:49.174Z,20.95
2023-01-10T10:24:28.054Z,20.58
2023-01-10T10:27:08.677Z,20.15
2023-01-10T10:29:35.558Z,20.17
2023-01-10T10:32:22.181Z,24.95
2023-01-10T10:35:12.040Z,24.60
2023-01-10T10:37:48.853Z,32.58
2023-01-10T10:40:28.309Z,19.02
2023-01-10T10:42:57.354Z,23.45
2023-01-10T10:45:43.022Z,18.75
2023-01-10T10:50:59.623Z,21.45
2023-01-10T10:53:27.087Z,26.67
2023-01-10T10:55:54.456Z,18.35
2023-01-10T10:58:21.608Z,23.00
2023-01-10T11:00:48.729Z,16.02
2023-01-10T11:03:31.360Z,21.92
2023-01-10T11:06:00.673Z,24.40
2023-01-10T11:08:29.630Z,23.70
2023-01-10T11:10:59.760Z,24.05
2023-01-10T11:13:42.194Z,23.83
2023-01-10T11:16:24.318Z,25.27
2023-01-10T11:19:15.580Z,19.30
2023-01-10T11:22:06.130Z,22.13
2023-01-10T11:24:36.733Z,23.55
2023-01-10T11:27:31.869Z,23.42
2023-01-10T11:30:17.716Z,16.23
2023-01-10T11:32:57.780Z,22.63
2023-01-10T11:35:32.729Z,18.98
2023-01-10T11:38:18.910Z,21.88
2023-01-10T11:41:07.083Z,16.33
2023-01-10T11:43:39.676Z,24.05
2023-01-10T11:46:13.092Z,26.25
2023-01-10T11:49:11.042Z,19.80
2023-01-10T11:51:50.786Z,18.30
2023-01-10T11:54:24.931Z,19.63
2023-01-10T11:57:25.946Z,20.33
2023-01-10T11:59:56.137Z,22.02
2023-01-10T12:02:27.932Z,16.42
2023-01-10T12:04:57.104Z,19.75
2023-01-10T12:07:24.083Z,15.95
2023-01-10T12:10:03.626Z,16.42
2023-01-10T12:12:35.227Z,18.33
2023-01-10T12:15:30.023Z,31.50
2023-01-10T12:18:00.212Z,18.38
2023-01-10T12:20:30.310Z,21.77
2023-01-10T12:23:06.569Z,25.38
2023-01-10T12:25:36.723Z,20.90
2023-01-10T12:28:04.595Z,17.73
2023-01-10T12:30:36.124Z,16.05
2023-01-10T12:33:10.731Z,27.63
2023-01-10T12:35:40.552Z,24.15
2023-01-10T12:38:46.775Z,27.90
2023-01-10T12:41:39.459Z,36.10
2023-01-10T12:44:16.248Z,26.50
2023-01-10T12:47:08.715Z,30.27
2023-01-10T12:49:46.962Z,33.58
2023-01-10T12:52:58.092Z,32.28
2023-01-10T12:55:29.623Z,30.85
2023-01-10T12:58:00.357Z,28.88
2023-01-10T13:00:40.575Z,24.48
2023-01-10T13:03:20.193Z,29.33
2023-01-10T13:05:49.968Z,30.52
2023-01-10T13:08:21.295Z,23.50
2023-01-10T13:10:51.769Z,28.13
2023-01-10T13:13:40.639Z,41.25
2023-01-10T13:16:29.259Z,29.67
2023-01-10T13:19:11.121Z,27.27
2023-01-10T13:21:40.951Z,25.38
2023-01-10T13:24:24.171Z,25.80
2023-01-10T13:27:03.326Z,21.23
2023-01-10T13:29:42.836Z,31.52
2023-01-10T13:32:23.591Z,22.90
2023-01-10T13:34:51.653Z,30.90
2023-01-10T13:37:50.654Z,27.15
2023-01-10T13:40:28.403Z,28.73
2023-01-10T13:43:34.766Z,16.55
2023-01-10T13:46:16.795Z,19.42
2023-01-10T13:48:49.665Z,26.42
2023-01-10T13:51:19.748Z,22.88
2023-01-10T13:53:51.935Z,34.92
2023-01-10T13:56:34.835Z,27.35
2023-01-10T13:59:18.880Z,36.55
2023-01-10T14:02:10.837Z,25.00
2023-01-10T14:04:45.053Z,22.35
2023-01-10T14:07:45.207Z,36.97
2023-01-10T14:10:21.237Z,33.08
2023-01-10T14:12:59.419Z,19.25
2023-01-10T14:15:34.263Z,24.80
2023-01-10T14:18:08.251Z,30.08
2023-01-10T14:20:36.508Z,27.30
2023-01-10T14:23:19.530Z,29.00
2023-01-10T14:25:52.337Z,30.75
2023-01-10T14:28:26.675Z,25.27
2023-01-10T14:31:05.815Z,25.45
2023-01-10T14:33:34.339Z,31.58
2023-01-10T14:36:10.157Z,19.83
2023-01-10T14:38:39.032Z,22.92
2023-01-10T14:41:12.759Z,23.17
2023-01-10T14:44:13.841Z,24.42
2023-01-10T14:46:47.944Z,19.75
2023-01-10T14:49:20.697Z,17.92
2023-01-10T14:51:50.659Z,26.33
2023-01-10T14:54:20.625Z,19.63
2023-01-10T14:56:52.475Z,32.05
2023-01-10T14:59:38.058Z,36.33
2023-01-10T15:02:15.296Z,24.15
2023-01-10T15:04:57.213Z,20.40
2023-01-10T15:07:25.515Z,35.95
2023-01-10T15:09:56.571Z,18.02
2023-01-10T15:12:25.766Z,20.95
2023-01-10T15:15:13.741Z,33.83
2023-01-10T15:17:42.351Z,35.17
2023-01-10T15:20:18.081Z,41.78
2023-01-10T15:22:50.289Z,42.60
2023-01-10T15:25:19.985Z,29.73
2023-01-10T15:27:49.648Z,37.25
2023-01-10T15:30:22.107Z,31.73
2023-01-10T15:33:01.875Z,44.10
2023-01-10T15:35:36.178Z,43.42
2023-01-10T15:38:16.546Z,34.30
2023-01-10T15:40:44.454Z,36.75
2023-01-10T15:43:17.186Z,42.88
2023-01-10T15:45:45.885Z,50.72
2023-01-10T15:48:28.042Z,44.75
2023-01-10T15:50:59.752Z,43.75
2023-01-10T15:53:52.105Z,53.70
2023-01-10T15:56:28.992Z,48.40
2023-01-10T15:58:57.819Z,43.10
2023-01-10T16:01:27.615Z,43.20
2023-01-10T16:03:58.660Z,44.38
2023-01-10T16:06:33.887Z,53.10
2023-01-10T16:09:06.056Z,44.03
2023-01-10T16:12:06.593Z,39.60
2023-01-10T16:14:36.609Z,38.20
2023-01-10T16:17:05.060Z,48.92
2023-01-10T16:19:32.184Z,50.28
2023-01-10T16:22:01.394Z,45.13
2023-01-10T16:24:37.036Z,38.08
2023-01-10T16:27:06.419Z,43.38
2023-01-10T16:29:34.304Z,37.30
2023-01-10T16:32:01.410Z,43.70
2023-01-10T16:34:28.338Z,30.80
2023-01-10T16:36:55.261Z,35.33
2023-01-10T16:39:24.077Z,33.35
2023-01-10T16:42:09.769Z,37.08
2023-01-10T16:44:36.722Z,36.13
2023-01-10T16:47:06.745Z,41.78
2023-01-10T16:49:34.456Z,41.55
2023-01-10T16:52:01.317Z,29.40
2023-01-10T16:54:28.636Z,44.35
2023-01-10T16:56:56.119Z,54.75
2023-01-10T16:59:23.136Z,25.50
2023-01-10T17:01:56.902Z,38.95
2023-01-10T17:04:28.183Z,34.00
2023-01-10T17:06:56.731Z,43.45
2023-01-10T17:09:29.245Z,30.40
2023-01-10T17:12:04.345Z,38.78
2023-01-10T17:14:36.227Z,48.72
2023-01-10T17:17:04.531Z,38.60
2023-01-10T17:19:31.851Z,51.38
2023-01-10T17:22:00.452Z,32.92
2023-01-10T17:24:30.019Z,31.95
2023-01-10T17:26:57.196Z,30.52
2023-01-10T17:29:24.114Z,31.60
2023-01-10T17:31:51.122Z,33.30
2023-01-10T17:34:18.119Z,36.38
2023-01-10T17:36:45.025Z,33.88
2023-01-10T17:39:11.944Z,33.13
2023-01-10T17:41:38.804Z,34.90
2023-01-10T17:44:05.893Z,22.67
2023-01-10T17:46:32.951Z,32.05
2023-01-10T17:49:02.176Z,32.53
2023-01-10T17:51:29.168Z,18.27
2023-01-10T17:53:56.535Z,23.13
2023-01-10T17:56:24.657Z,20.90
2023-01-10T17:58:53.096Z,24.08
2023-01-10T18:01:25.174Z,21.50
2023-01-10T18:03:52.931Z,23.48
2023-01-10T18:06:25.154Z,37.35
2023-01-10T18:08:53.816Z,27.98
2023-01-10T18:11:25.252Z,26.00
2023-01-10T18:13:52.360Z,24.55
2023-01-10T18:16:19.333Z,26.70
2023-01-10T18:18:46.304Z,29.88
2023-01-10T18:21:15.820Z,33.75
2023-01-10T18:23:42.933Z,22.33
2023-01-10T18:26:12.190Z,24.60
2023-01-10T18:28:42.781Z,23.20
2023-01-10T18:31:16.367Z,21.88
2023-01-10T18:33:44.393Z,34.38
2023-01-10T18:36:21.429Z,35.08
2023-01-10T18:38:49.131Z,20.25
2023-01-10T18:41:16.879Z,10.10
2023-01-10T18:43:44.281Z,17.85
2023-01-10T18:46:14.469Z,24.30
2023-01-10T18:48:41.627Z,24.35
2023-01-10T18:51:10.138Z,23.17
2023-01-10T18:53:37.158Z,23.52
2023-01-10T18:56:05.345Z,28.80
2023-01-10T18:58:34.877Z,41.63
2023-01-10T19:01:14.220Z,43.15
2023-01-10T19:03:41.891Z,21.13
2023-01-10T19:06:11.343Z,37.35
2023-01-10T19:08:41.540Z,28.38
2023-01-10T19:11:14.774Z,25.45
2023-01-10T19:13:43.914Z,40.25
2023-01-10T19:16:18.438Z,41.75
2023-01-10T19:18:53.598Z,46.70
2023-01-10T19:21:21.164Z,41.80
2023-01-10T19:23:50.519Z,31.90
2023-01-10T19:26:18.170Z,31.50
2023-01-10T19:28:46.697Z,40.00
2023-01-10T19:31:21.745Z,32.08
2023-01-10T19:33:50.637Z,32.88
2023-01-10T19:36:22.990Z,32.65
2023-01-10T19:38:57.829Z,27.88
2023-01-10T19:41:26.506Z,28.88
2023-01-10T19:43:58.463Z,23.15
2023-01-10T19:46:26.482Z,43.28
2023-01-10T19:48:55.966Z,21.00
2023-01-10T19:51:22.975Z,24.02
2023-01-10T19:53:50.027Z,18.92
2023-01-10T19:56:21.940Z,33.95
2023-01-10T19:58:50.636Z,26.40
2023-01-10T20:01:20.815Z,26.75
2023-01-10T20:03:48.001Z,10.43
2023-01-10T20:06:18.543Z,20.80
2023-01-10T20:08:46.667Z,14.70
2023-01-10T20:11:15.033Z,20.23
2023-01-10T20:13:46.038Z,19.38
2023-01-10T20:16:15.697Z,25.92
2023-01-10T20:18:44.097Z,21.67
2023-01-10T20:21:12.847Z,24.90
2023-01-10T20:23:40.720Z,17.42
2023-01-10T20:26:11.890Z,19.90
2023-01-10T20:28:39.763Z,27.40
2023-01-10T20:31:17.598Z,47.72
2023-01-10T20:33:44.580Z,26.75
2023-01-10T20:36:14.363Z,34.75
2023-01-10T20:38:41.311Z,33.08
2023-01-10T20:41:15.585Z,33.35
2023-01-10T20:43:44.770Z,30.47
2023-01-10T20:46:14.395Z,28.23
2023-01-10T20:48:42.041Z,29.88
2023-01-10T20:51:12.923Z,39.75
2023-01-10T20:53:40.070Z,40.53
2023-01-10T20:56:12.897Z,28.17
2023-01-10T20:58:39.965Z,32.33
2023-01-10T21:01:07.990Z,18.67
2023-01-10T21:03:35.269Z,29.80
2023-01-10T21:06:02.766Z,38.40
2023-01-10T21:08:29.841Z,29.60
2023-01-10T21:10:57.618Z,26.17
2023-01-10T21:13:24.649Z,29.73
2023-01-10T21:15:55.291Z,27.63
2023-01-10T21:18:27.108Z,31.50
2023-01-10T21:20:55.748Z,30.75
2023-01-10T21:23:25.085Z,32.22
2023-01-10T21:25:53.827Z,32.72
2023-01-10T21:28:21.325Z,35.75
2023-01-10T21:30:48.367Z,33.20
2023-01-10T21:33:15.415Z,28.60
2023-01-10T21:35:42.406Z,28.45
2023-01-10T21:38:09.324Z,25.33
2023-01-10T21:40:36.384Z,25.58
2023-01-10T21:43:03.420Z,30.63
2023-01-10T21:45:30.483Z,24.00
2023-01-10T21:47:57.353Z,39.33
2023-01-10T21:50:24.229Z,36.88
2023-01-10T21:52:51.219Z,26.20
2023-01-10T21:55:18.258Z,27.13
2023-01-10T21:57:45.520Z,34.53
2023-01-10T22:00:13.016Z,25.73
2023-01-10T22:02:41.093Z,32.33
2023-01-10T22:05:10.237Z,29.85
2023-01-10T22:07:38.283Z,32.88
2023-01-10T22:10:07.167Z,29.02
2023-01-10T22:12:34.188Z,31.25
2023-01-10T22:15:01.126Z,27.15
2023-01-10T22:17:28.029Z,34.83
2023-01-10T22:19:54.987Z,27.85
2023-01-10T22:22:22.005Z,29.65
2023-01-10T22:24:48.852Z,36.05
2023-01-10T22:27:16.238Z,25.98
2023-01-10T22:29:43.713Z,18.50
2023-01-10T22:32:10.682Z,28.23
2023-01-10T22:34:37.710Z,27.50
2023-01-10T22:37:04.796Z,35.22
2023-01-10T22:39:31.943Z,28.92
2023-01-10T22:41:58.875Z,34.55
2023-01-10T22:44:27.234Z,30.60
2023-01-10T22:46:55.693Z,29.27
2023-01-10T22:49:23.149Z,27.85
2023-01-10T22:51:50.735Z,38.13
2023-01-10T22:54:18.128Z,25.85
2023-01-10T22:56:46.640Z,39.20
2023-01-10T22:59:14.388Z,19.55
2023-01-10T23:01:41.455Z,42.60
2023-01-10T23:04:08.741Z,20.33
2023-01-10T23:06:35.799Z,28.88
2023-01-10T23:09:02.806Z,28.52
2023-01-10T23:11:29.804Z,33.50
2023-01-10T23:13:56.705Z,33.17
2023-01-10T23:16:32.829Z,32.50
2023-01-10T23:19:00.350Z,39.83
2023-01-10T23:21:29.445Z,40.90
2023-01-10T23:23:57.012Z,47.08
2023-01-10T23:26:24.224Z,41.70
2023-01-10T23:28:51.872Z,31.60
2023-01-10T23:31:21.534Z,27.73
2023-01-10T23:33:49.261Z,28.75
2023-01-10T23:36:17.037Z,29.83
2023-01-10T23:38:44.418Z,43.03
2023-01-10T23:41:11.823Z,35.85
2023-01-10T23:43:38.781Z,41.45
2023-01-10T23:46:06.878Z,36.95
2023-01-10T23:48:34.294Z,36.10
2023-01-10T23:51:01.335Z,34.10
2023-01-10T23:53:28.276Z,35.17
2023-01-10T23:55:55.335Z,31.33
2023-01-10T23:58:22.308Z,26.80
